Terminal Aerodrome Forecast
Issued by NWS

Home | Current Version | Previous Version | Text Only | Print | Product List | Glossary On
Versions: 1 2 3 4 5 6 7 8 9 10 11 12 13 14 15 16 17 18 19 20 21 22 23 24 25
000
FTUS43 KDTX 221411 AAA
TAFDET
TAF AMD
KDET 221411Z 2214/2312 22010KT 4SM BR OVC010 WS020/22050KT
     FM221500 22013G20KT 6SM BR SCT015 OVC025 WS020/22050KT
      TEMPO 2215/2219 4SM -SHRA BR OVC015
     FM230000 22012KT 4SM -RA BR OVC012 WS020/24050KT
     FM230800 19008KT 2SM -RA BR OVC007=

USA.gov is the U.S. government's official web portal to all federal, state and local government web resources and services.